createdAt,value
2018-02-12T00:01:00.140Z,3.20
2018-02-12T00:03:29.501Z,2.90
2018-02-12T00:05:58.847Z,2.03
2018-02-12T00:08:28.601Z,2.57
2018-02-12T00:10:58.390Z,2.60
2018-02-12T00:13:27.377Z,2.80
2018-02-12T00:15:56.351Z,3.33
2018-02-12T00:18:25.308Z,2.30
2018-02-12T00:20:54.665Z,2.30
2018-02-12T00:23:23.609Z,2.60
2018-02-12T00:25:52.607Z,2.63
2018-02-12T00:28:21.593Z,2.40
2018-02-12T00:30:51.324Z,2.57
2018-02-12T00:33:21.172Z,2.70
2018-02-12T00:35:50.521Z,2.33
2018-02-12T00:38:19.479Z,2.80
2018-02-12T00:40:49.228Z,2.13
2018-02-12T00:43:18.196Z,2.70
2018-02-12T00:45:48.465Z,2.70
2018-02-12T00:48:17.419Z,2.13
2018-02-12T00:50:47.146Z,2.40
2018-02-12T00:53:16.131Z,2.00
2018-02-12T00:55:45.101Z,1.83
2018-02-12T00:58:14.807Z,2.50
2018-02-12T01:00:44.227Z,2.57
2018-02-12T01:03:13.594Z,2.07
2018-02-12T01:05:42.569Z,2.20
2018-02-12T01:08:11.534Z,2.40
2018-02-12T01:10:40.478Z,2.50
2018-02-12T01:13:10.282Z,2.10
2018-02-12T01:15:39.231Z,2.10
2018-02-12T01:18:08.191Z,1.87
2018-02-12T01:20:38.905Z,2.70
2018-02-12T01:23:08.473Z,2.73
2018-02-12T01:25:37.433Z,2.63
2018-02-12T01:28:06.405Z,2.50
2018-02-12T01:30:36.158Z,3.00
2018-02-12T01:33:05.108Z,3.20
2018-02-12T01:35:34.443Z,2.43
2018-02-12T01:38:03.406Z,3.03
2018-02-12T01:40:33.165Z,3.17
2018-02-12T01:43:02.583Z,3.13
2018-02-12T01:45:31.598Z,2.60
2018-02-12T01:48:01.260Z,2.80
2018-02-12T01:50:30.224Z,2.63
2018-02-12T01:52:59.208Z,2.13
2018-02-12T01:55:28.289Z,2.80
2018-02-12T01:57:58.008Z,2.40
2018-02-12T02:00:27.734Z,2.67
2018-02-12T02:02:56.720Z,3.47
2018-02-12T02:05:25.665Z,2.87
2018-02-12T02:07:54.625Z,3.47
2018-02-12T02:10:23.594Z,3.10
2018-02-12T02:12:52.545Z,3.60
2018-02-12T02:15:21.534Z,3.47
2018-02-12T02:17:50.510Z,3.13
2018-02-12T02:20:20.978Z,3.67
2018-02-12T02:22:50.718Z,3.47
2018-02-12T02:25:19.665Z,4.07
2018-02-12T02:27:49.403Z,3.43
2018-02-12T02:30:18.889Z,3.67
2018-02-12T02:32:48.613Z,2.70
2018-02-12T02:35:17.573Z,3.33
2018-02-12T02:37:46.574Z,2.97
2018-02-12T02:40:15.532Z,3.97
2018-02-12T02:42:44.468Z,4.40
2018-02-12T02:45:13.885Z,3.67
2018-02-12T02:47:42.965Z,4.00
2018-02-12T02:50:12.674Z,3.57
2018-02-12T02:52:42.429Z,3.83
2018-02-12T02:55:11.347Z,3.20
2018-02-12T02:57:40.309Z,2.87
2018-02-12T03:00:09.588Z,3.03
2018-02-12T03:02:38.551Z,3.57
2018-02-12T03:05:08.461Z,3.27
2018-02-12T03:07:38.151Z,2.80
2018-02-12T03:10:07.124Z,2.93
2018-02-12T03:12:36.587Z,2.30
2018-02-12T03:15:06.109Z,2.97
2018-02-12T03:17:35.047Z,2.20
2018-02-12T03:20:04.062Z,2.63
2018-02-12T03:22:33.791Z,2.27
2018-02-12T03:25:02.739Z,2.40
2018-02-12T03:27:31.704Z,2.60
2018-02-12T03:30:00.811Z,2.67
2018-02-12T03:32:30.003Z,1.93
2018-02-12T03:34:58.970Z,2.10
2018-02-12T03:37:27.945Z,2.10
2018-02-12T03:39:56.892Z,1.60
2018-02-12T03:42:26.053Z,1.60
2018-02-12T03:44:55.756Z,2.30
2018-02-12T03:47:24.720Z,1.83
2018-02-12T03:49:54.450Z,1.63
2018-02-12T03:52:23.381Z,2.03
2018-02-12T03:54:52.340Z,1.23
2018-02-12T03:57:21.293Z,1.80
2018-02-12T03:59:51.046Z,1.50
2018-02-12T04:02:20.411Z,1.40
2018-02-12T04:04:50.139Z,1.50
2018-02-12T04:07:19.076Z,1.70
2018-02-12T04:09:48.163Z,1.40
2018-02-12T04:12:17.129Z,1.53
2018-02-12T04:14:46.098Z,1.40
2018-02-12T04:17:15.425Z,1.83
2018-02-12T04:19:44.366Z,1.30
2018-02-12T04:22:13.796Z,1.33
2018-02-12T04:24:42.799Z,1.30
2018-02-12T04:27:11.739Z,1.47
2018-02-12T04:29:41.450Z,1.73
2018-02-12T04:32:10.569Z,2.33
2018-02-12T04:34:39.787Z,1.37
2018-02-12T04:37:08.801Z,1.40
2018-02-12T04:39:37.776Z,1.70
2018-02-12T04:42:06.759Z,1.50
2018-02-12T04:44:36.524Z,1.10
2018-02-12T04:47:05.607Z,1.77
2018-02-12T04:49:34.502Z,2.27
2018-02-12T04:52:03.512Z,1.97
2018-02-12T04:54:32.517Z,1.63
2018-02-12T04:57:01.462Z,1.50
2018-02-12T04:59:30.462Z,1.40
2018-02-12T05:01:59.376Z,1.67
2018-02-12T05:04:28.712Z,1.40
2018-02-12T05:06:57.704Z,1.20
2018-02-12T05:09:27.462Z,1.83
2018-02-12T05:11:57.201Z,1.50
2018-02-12T05:14:26.145Z,1.47
2018-02-12T05:16:55.170Z,1.50
2018-02-12T05:19:24.101Z,1.70
2018-02-12T05:21:53.064Z,1.47
2018-02-12T05:24:22.020Z,1.77
2018-02-12T05:26:51.370Z,1.63
2018-02-12T05:29:20.319Z,2.07
2018-02-12T05:31:49.297Z,1.57
2018-02-12T05:34:18.293Z,1.63
2018-02-12T05:36:47.677Z,1.33
2018-02-12T05:39:16.977Z,1.20
2018-02-12T05:41:45.947Z,1.10
2018-02-12T05:44:15.751Z,1.60
2018-02-12T05:46:44.669Z,1.00
2018-02-12T05:49:13.664Z,1.60
2018-02-12T05:51:42.687Z,1.10
2018-02-12T05:54:11.614Z,1.20
2018-02-12T05:56:40.565Z,1.00
2018-02-12T05:59:09.518Z,1.20
2018-02-12T06:01:38.844Z,0.90
2018-02-12T06:04:08.209Z,0.80
2018-02-12T06:06:37.923Z,1.57
2018-02-12T06:09:07.691Z,1.60
2018-02-12T06:11:37.399Z,2.20
2018-02-12T06:14:06.378Z,1.50
2018-02-12T06:16:35.326Z,1.00
2018-02-12T06:19:05.050Z,1.80
2018-02-12T06:21:34.002Z,1.10
2018-02-12T06:24:02.932Z,1.20
2018-02-12T06:26:32.348Z,1.03
2018-02-12T06:29:01.279Z,1.03
2018-02-12T06:31:30.250Z,1.70
2018-02-12T06:33:59.222Z,1.40
2018-02-12T06:36:28.268Z,0.63
2018-02-12T06:38:57.336Z,0.60
2018-02-12T06:41:26.325Z,0.80
2018-02-12T06:43:55.276Z,1.20
2018-02-12T06:46:24.288Z,1.10
2018-02-12T06:48:53.273Z,0.80
2018-02-12T06:51:23.012Z,0.70
2018-02-12T06:53:51.994Z,0.67
2018-02-12T06:56:20.943Z,1.37
2018-02-12T06:58:50.742Z,1.50
2018-02-12T07:01:20.469Z,0.87
2018-02-12T07:03:50.190Z,1.03
2018-02-12T07:06:19.146Z,4.63
2018-02-12T07:08:48.129Z,4.60
2018-02-12T07:11:17.096Z,3.93
2018-02-12T07:13:46.043Z,1.40
2018-02-12T07:16:15.816Z,1.47
2018-02-12T07:18:47.353Z,0.93
2018-02-12T07:21:16.563Z,1.40
2018-02-12T07:23:45.529Z,1.00
2018-02-12T07:26:14.522Z,1.37
2018-02-12T07:28:43.578Z,1.57
2018-02-12T07:31:12.946Z,1.10
2018-02-12T07:33:43.105Z,3.23
2018-02-12T07:36:12.095Z,2.00
2018-02-12T07:38:41.961Z,3.20
2018-02-12T07:41:11.928Z,1.90
2018-02-12T07:43:42.276Z,3.33
2018-02-12T07:46:11.269Z,2.03
2018-02-12T07:48:40.285Z,1.80
2018-02-12T07:51:10.369Z,2.93
2018-02-12T07:53:40.291Z,2.70
2018-02-12T07:56:10.707Z,1.03
2018-02-12T07:58:41.221Z,1.57
2018-02-12T08:01:10.937Z,1.30
2018-02-12T08:03:40.730Z,1.60
2018-02-12T08:06:09.702Z,2.00
2018-02-12T08:08:38.696Z,2.10
2018-02-12T08:11:07.773Z,2.83
2018-02-12T08:13:36.964Z,1.60
2018-02-12T08:16:06.799Z,3.17
2018-02-12T08:18:37.367Z,1.53
2018-02-12T08:21:06.548Z,1.50
2018-02-12T08:23:36.370Z,1.43
2018-02-12T08:26:06.146Z,1.63
2018-02-12T08:28:35.146Z,0.97
2018-02-12T08:31:05.108Z,1.40
2018-02-12T08:33:34.113Z,1.87
2018-02-12T08:36:03.128Z,1.00
2018-02-12T08:38:32.866Z,1.23
2018-02-12T08:41:01.917Z,1.23
2018-02-12T08:43:31.763Z,1.30
2018-02-12T08:46:00.738Z,1.03
2018-02-12T08:48:30.594Z,1.63
2018-02-12T08:51:00.770Z,1.10
2018-02-12T08:53:32.138Z,1.60
2018-02-12T08:56:01.196Z,1.20
2018-02-12T08:58:31.063Z,1.30
2018-02-12T09:01:00.143Z,2.10
2018-02-12T09:03:30.118Z,1.87
2018-02-12T09:05:59.164Z,1.57
2018-02-12T09:08:28.649Z,1.20
2018-02-12T09:10:57.703Z,1.30
2018-02-12T09:13:26.588Z,1.10
2018-02-12T09:15:57.003Z,1.37
2018-02-12T09:18:26.722Z,1.10
2018-02-12T09:20:55.800Z,1.30
2018-02-12T09:23:25.109Z,1.70
2018-02-12T09:25:54.636Z,1.97
2018-02-12T09:28:23.727Z,1.80
2018-02-12T09:30:55.744Z,2.00
2018-02-12T09:33:25.507Z,2.10
2018-02-12T09:35:54.458Z,1.53
2018-02-12T09:38:24.360Z,1.70
2018-02-12T09:40:53.280Z,1.83
2018-02-12T09:43:22.240Z,1.40
2018-02-12T09:45:51.222Z,2.17
2018-02-12T09:48:20.143Z,2.60
2018-02-12T09:50:49.099Z,2.57
2018-02-12T09:53:18.246Z,1.93
2018-02-12T09:55:48.419Z,2.03
2018-02-12T09:58:17.632Z,3.40
2018-02-12T10:00:49.651Z,2.20
2018-02-12T10:03:18.646Z,1.83
2018-02-12T10:05:47.659Z,1.60
2018-02-12T10:08:16.749Z,1.80
2018-02-12T10:10:45.812Z,1.60
2018-02-12T10:13:18.787Z,1.10
2018-02-12T10:15:49.383Z,1.03
2018-02-12T10:18:19.116Z,1.50
2018-02-12T10:20:48.084Z,1.00
2018-02-12T10:23:17.789Z,1.30
2018-02-12T10:25:47.172Z,1.10
2018-02-12T10:28:16.162Z,1.07
2018-02-12T10:30:45.655Z,1.20
2018-02-12T10:33:14.797Z,1.60
2018-02-12T10:35:43.743Z,1.40
2018-02-12T10:38:12.737Z,1.20
2018-02-12T10:40:41.703Z,1.20
2018-02-12T10:43:10.657Z,1.10
2018-02-12T10:45:39.604Z,0.80
2018-02-12T10:48:09.766Z,0.93
2018-02-12T10:50:38.732Z,0.80
2018-02-12T10:53:08.483Z,1.50
2018-02-12T10:55:37.481Z,0.87
2018-02-12T10:58:06.425Z,0.70
2018-02-12T11:00:36.941Z,0.57
2018-02-12T11:03:06.172Z,1.07
2018-02-12T11:05:35.558Z,1.30
2018-02-12T11:08:10.619Z,1.57
2018-02-12T11:10:40.350Z,1.50
2018-02-12T11:13:09.341Z,1.60
2018-02-12T11:15:38.361Z,1.10
2018-02-12T11:18:08.085Z,1.20
2018-02-12T11:20:37.028Z,1.90
2018-02-12T11:23:06.442Z,1.70
2018-02-12T11:25:36.358Z,1.80
2018-02-12T11:28:05.332Z,1.00
2018-02-12T11:30:34.818Z,1.00
2018-02-12T11:33:03.778Z,0.90
2018-02-12T11:35:33.500Z,1.70
2018-02-12T11:38:03.960Z,0.87
2018-02-12T11:40:33.680Z,1.60
2018-02-12T11:43:02.712Z,2.70
2018-02-12T11:45:32.892Z,1.27
2018-02-12T11:48:01.876Z,1.47
2018-02-12T11:50:31.267Z,1.57
2018-02-12T11:53:00.532Z,2.40
2018-02-12T11:55:30.574Z,2.37
2018-02-12T11:57:59.887Z,2.07
2018-02-12T12:00:30.167Z,1.23
2018-02-12T12:02:59.136Z,1.73
2018-02-12T12:05:28.072Z,2.63
2018-02-12T12:07:57.809Z,1.60
2018-02-12T12:10:26.791Z,1.60
2018-02-12T12:12:55.918Z,1.83
2018-02-12T12:15:25.213Z,1.40
2018-02-12T12:17:54.909Z,2.70
2018-02-12T12:20:23.869Z,1.33
2018-02-12T12:22:52.823Z,1.93
2018-02-12T12:25:21.845Z,1.23
2018-02-12T12:27:50.817Z,2.37
2018-02-12T12:30:21.981Z,1.53
2018-02-12T12:32:50.936Z,1.67
2018-02-12T12:35:19.890Z,1.70
2018-02-12T12:37:50.491Z,1.90
2018-02-12T12:40:20.183Z,1.80
2018-02-12T12:42:49.155Z,1.80
2018-02-12T12:45:18.171Z,2.17
2018-02-12T12:47:47.601Z,1.50
2018-02-12T12:50:16.664Z,1.10
2018-02-12T12:52:45.632Z,1.80
2018-02-12T12:55:15.352Z,1.50
2018-02-12T12:57:44.341Z,2.40
2018-02-12T13:00:13.349Z,1.30
2018-02-12T13:02:42.337Z,1.03
2018-02-12T13:05:11.364Z,1.30
2018-02-12T13:07:40.341Z,0.70
2018-02-12T13:10:10.352Z,1.00
2018-02-12T13:12:39.418Z,1.30
2018-02-12T13:15:08.465Z,1.30
2018-02-12T13:17:37.380Z,1.10
2018-02-12T13:20:07.121Z,1.10
2018-02-12T13:22:36.085Z,1.73
2018-02-12T13:25:05.885Z,1.27
2018-02-12T13:27:34.852Z,1.43
2018-02-12T13:30:03.793Z,1.57
2018-02-12T13:32:32.769Z,1.50
2018-02-12T13:35:02.265Z,1.70
2018-02-12T13:37:31.226Z,1.10
2018-02-12T13:40:00.351Z,1.63
2018-02-12T13:42:30.369Z,1.20
2018-02-12T13:45:00.108Z,1.80
2018-02-12T13:47:29.467Z,1.63
2018-02-12T13:49:58.432Z,1.50
2018-02-12T13:52:27.931Z,1.20
2018-02-12T13:54:57.375Z,1.33
2018-02-12T13:57:26.674Z,1.30
2018-02-12T14:02:37.847Z,1.10
2018-02-12T14:05:06.817Z,0.93
2018-02-12T14:07:36.198Z,1.00
2018-02-12T14:10:05.162Z,0.90
2018-02-12T14:12:34.157Z,1.37
2018-02-12T14:15:03.905Z,1.07
2018-02-12T14:17:32.942Z,0.90
2018-02-12T14:20:03.544Z,0.80
2018-02-12T14:22:32.650Z,0.80
2018-02-12T14:25:01.667Z,1.10
2018-02-12T14:27:31.103Z,0.70
2018-02-12T14:30:00.190Z,0.90
2018-02-12T14:32:29.942Z,1.30
2018-02-12T14:34:58.944Z,0.80
2018-02-12T14:37:28.016Z,0.60
2018-02-12T14:39:57.088Z,0.70
2018-02-12T14:42:26.953Z,1.00
2018-02-12T14:44:56.410Z,0.60
2018-02-12T14:47:26.605Z,0.80
2018-02-12T14:49:56.386Z,1.33
2018-02-12T14:52:25.517Z,1.00
2018-02-12T14:54:55.213Z,1.57
2018-02-12T14:57:25.069Z,0.90
2018-02-12T14:59:54.362Z,1.13
2018-02-12T15:02:23.376Z,1.13
2018-02-12T15:04:52.367Z,1.50
2018-02-12T15:07:21.381Z,1.25
2018-02-12T15:09:50.790Z,1.50
2018-02-12T15:12:19.758Z,2.07
2018-02-12T15:14:48.800Z,1.60
2018-02-12T15:17:18.662Z,1.00
2018-02-12T15:19:48.397Z,1.30
2018-02-12T15:22:22.089Z,1.00
2018-02-12T15:25:13.805Z,0.70
2018-02-12T15:27:42.789Z,1.10
2018-02-12T15:30:12.646Z,0.70
2018-02-12T15:32:49.933Z,0.93
2018-02-12T15:35:29.624Z,1.00
2018-02-12T15:37:58.857Z,1.00
2018-02-12T15:40:30.498Z,1.40
2018-02-12T15:43:00.281Z,1.37
2018-02-12T15:45:30.493Z,1.30
2018-02-12T15:48:11.009Z,1.20
2018-02-12T15:50:42.690Z,1.70
2018-02-12T15:53:12.464Z,1.30
2018-02-12T15:55:42.245Z,0.93
2018-02-12T15:58:11.317Z,1.00
2018-02-12T16:00:40.880Z,1.97
2018-02-12T16:03:12.867Z,1.90
2018-02-12T16:05:42.732Z,1.60
2018-02-12T16:08:12.803Z,1.87
2018-02-12T16:10:41.984Z,1.40
2018-02-12T16:13:11.730Z,1.00
2018-02-12T16:15:42.878Z,1.50
2018-02-12T16:18:11.861Z,0.87
2018-02-12T16:20:41.617Z,1.60
2018-02-12T16:23:11.007Z,0.80
2018-02-12T16:25:40.696Z,1.20
2018-02-12T16:28:09.649Z,0.97
2018-02-12T16:30:39.019Z,1.60
2018-02-12T16:33:08.384Z,1.40
2018-02-12T16:35:37.337Z,1.40
2018-02-12T16:38:06.440Z,1.37
2018-02-12T16:40:36.166Z,2.63
2018-02-12T16:43:05.910Z,5.53
2018-02-12T16:45:35.652Z,16.70
2018-02-12T16:48:04.635Z,3.33
2018-02-12T16:50:33.662Z,7.17
2018-02-12T16:53:03.470Z,7.43
2018-02-12T16:55:33.185Z,11.90
2018-02-12T16:58:02.173Z,28.93
2018-02-12T17:00:31.460Z,12.10
2018-02-12T17:03:01.504Z,4.60
2018-02-12T17:05:30.761Z,6.20
2018-02-12T17:07:59.703Z,6.23
2018-02-12T17:10:28.739Z,3.77
2018-02-12T17:12:57.721Z,4.47
2018-02-12T17:15:27.102Z,2.07
2018-02-12T17:17:56.056Z,2.47
2018-02-12T17:20:26.516Z,2.60
2018-02-12T17:22:55.486Z,2.17
2018-02-12T17:25:24.480Z,3.00
2018-02-12T17:27:54.229Z,2.77
2018-02-12T17:30:23.165Z,2.00
2018-02-12T17:32:52.963Z,1.97
2018-02-12T17:35:21.969Z,2.90
2018-02-12T17:37:50.964Z,2.03
2018-02-12T17:40:20.791Z,3.70
2018-02-12T17:42:50.528Z,2.47
2018-02-12T17:45:19.518Z,2.23
2018-02-12T17:47:48.467Z,2.37
2018-02-12T17:50:18.330Z,2.23
2018-02-12T17:52:47.326Z,2.50
2018-02-12T17:55:16.660Z,2.33
2018-02-12T17:57:45.689Z,2.40
2018-02-12T18:00:14.996Z,2.70
2018-02-12T18:02:44.002Z,4.53
2018-02-12T18:05:12.975Z,9.43
2018-02-12T18:07:42.360Z,34.10
2018-02-12T18:10:11.382Z,26.40
2018-02-12T18:12:40.760Z,37.80
2018-02-12T18:15:10.522Z,37.80
2018-02-12T18:17:39.897Z,87.90
2018-02-12T18:20:08.867Z,39.67
2018-02-12T18:22:37.890Z,27.67
2018-02-12T18:25:06.949Z,5.30
2018-02-12T18:27:35.956Z,3.77
2018-02-12T18:30:04.981Z,2.40
2018-02-12T18:32:41.806Z,2.77
2018-02-12T18:35:11.634Z,1.60
2018-02-12T18:37:40.595Z,2.00
2018-02-12T18:40:09.594Z,2.27
2018-02-12T18:42:39.058Z,2.40
2018-02-12T18:45:08.003Z,1.70
2018-02-12T18:47:37.746Z,2.73
2018-02-12T18:50:06.743Z,2.50
2018-02-12T18:52:36.876Z,2.73
2018-02-12T18:55:05.852Z,3.80
2018-02-12T18:57:35.932Z,2.80
2018-02-12T19:00:04.897Z,3.03
2018-02-12T19:02:33.910Z,2.80
2018-02-12T19:05:03.107Z,2.07
2018-02-12T19:07:32.232Z,2.70
2018-02-12T19:10:01.320Z,2.30
2018-02-12T19:12:31.115Z,2.27
2018-02-12T19:15:00.141Z,3.90
2018-02-12T19:17:29.947Z,3.47
2018-02-12T19:19:58.925Z,3.30
2018-02-12T19:22:28.330Z,3.10
2018-02-12T19:24:58.106Z,2.67
2018-02-12T19:27:27.110Z,2.73
2018-02-12T19:29:56.234Z,2.63
2018-02-12T19:32:25.261Z,3.40
2018-02-12T19:34:54.838Z,4.60
2018-02-12T19:37:23.904Z,3.10
2018-02-12T19:39:52.942Z,3.87
2018-02-12T19:42:22.221Z,3.30
2018-02-12T19:44:52.193Z,4.23
2018-02-12T19:47:21.233Z,3.13
2018-02-12T19:49:50.273Z,3.40
2018-02-12T19:52:19.244Z,3.17
2018-02-12T19:54:49.020Z,3.50
2018-02-12T19:57:18.056Z,2.73
2018-02-12T19:59:47.041Z,3.10
2018-02-12T20:02:16.896Z,3.90
2018-02-12T20:04:45.936Z,3.50
2018-02-12T20:07:15.726Z,3.73
2018-02-12T20:09:45.010Z,3.70
2018-02-12T20:12:14.931Z,2.97
2018-02-12T20:14:44.787Z,4.17
2018-02-12T20:17:15.317Z,4.18
2018-02-12T20:19:44.311Z,4.72
2018-02-12T20:22:13.447Z,4.80
2018-02-12T20:24:42.578Z,4.40
2018-02-12T20:27:13.278Z,4.57
2018-02-12T20:29:42.381Z,4.03
2018-02-12T20:32:12.139Z,4.10
2018-02-12T20:34:41.192Z,3.80
2018-02-12T20:37:10.964Z,3.60
2018-02-12T20:39:40.725Z,4.20
2018-02-12T20:42:09.893Z,5.13
2018-02-12T20:44:39.310Z,4.90
2018-02-12T20:47:08.314Z,4.53
2018-02-12T20:49:37.379Z,4.40
2018-02-12T20:52:06.416Z,4.00
2018-02-12T20:54:35.463Z,4.60
2018-02-12T20:57:04.541Z,4.63
2018-02-12T20:59:36.334Z,4.27
2018-02-12T21:02:06.890Z,4.50
2018-02-12T21:04:36.703Z,4.20
2018-02-12T21:07:05.733Z,4.50
2018-02-12T21:09:34.852Z,5.33
2018-02-12T21:12:04.656Z,5.57
2018-02-12T21:14:33.899Z,4.90
2018-02-12T21:17:03.706Z,4.70
2018-02-12T21:19:32.740Z,4.20
2018-02-12T21:22:01.841Z,4.50
2018-02-12T21:24:30.848Z,4.30
2018-02-12T21:27:00.812Z,5.57
2018-02-12T21:29:30.049Z,5.30
2018-02-12T21:31:59.527Z,4.83
2018-02-12T21:34:28.522Z,4.20
2018-02-12T21:36:57.514Z,5.33
2018-02-12T21:39:26.489Z,4.83
2018-02-12T21:41:55.509Z,5.30
2018-02-12T21:44:24.502Z,6.43
2018-02-12T21:46:54.478Z,7.23
2018-02-12T21:49:24.394Z,5.73
2018-02-12T21:51:53.455Z,5.10
2018-02-12T21:54:23.324Z,6.07
2018-02-12T21:56:52.375Z,5.80
2018-02-12T21:59:22.302Z,5.70
2018-02-12T22:01:51.248Z,5.63
2018-02-12T22:04:20.777Z,5.70
2018-02-12T22:06:49.868Z,5.07
2018-02-12T22:09:19.702Z,6.03
2018-02-12T22:11:48.680Z,6.60
2018-02-12T22:14:18.636Z,6.47
2018-02-12T22:16:47.602Z,6.47
2018-02-12T22:19:16.591Z,6.03
2018-02-12T22:21:45.585Z,5.93
2018-02-12T22:24:14.552Z,5.50
2018-02-12T22:26:43.915Z,5.40
2018-02-12T22:29:13.649Z,5.83
2018-02-12T22:31:42.663Z,5.80
2018-02-12T22:34:12.413Z,4.83
2018-02-12T22:36:41.796Z,4.30
2018-02-12T22:39:10.863Z,5.07
2018-02-12T22:41:40.196Z,4.70
2018-02-12T22:44:09.559Z,4.53
2018-02-12T22:46:39.261Z,4.00
2018-02-12T22:49:08.211Z,4.00
2018-02-12T22:51:38.167Z,4.67
2018-02-12T22:54:08.006Z,5.13
2018-02-12T22:56:37.066Z,4.73
2018-02-12T22:59:06.489Z,4.33
2018-02-12T23:01:35.487Z,4.10
2018-02-12T23:04:05.241Z,5.60
2018-02-12T23:06:34.173Z,4.83
2018-02-12T23:09:03.522Z,4.00
2018-02-12T23:11:32.488Z,5.77
2018-02-12T23:14:02.180Z,4.27
2018-02-12T23:16:31.119Z,5.13
2018-02-12T23:19:00.161Z,5.27
2018-02-12T23:21:29.102Z,4.90
2018-02-12T23:23:58.081Z,4.73
2018-02-12T23:26:27.025Z,4.17
2018-02-12T23:28:56.176Z,5.00
2018-02-12T23:31:25.139Z,4.80
2018-02-12T23:33:54.850Z,5.03
2018-02-12T23:36:24.749Z,4.83
2018-02-12T23:38:54.567Z,5.33
2018-02-12T23:41:23.493Z,5.40
2018-02-12T23:43:52.434Z,4.97
2018-02-12T23:46:21.793Z,5.83
2018-02-12T23:48:50.742Z,5.17
2018-02-12T23:51:20.473Z,4.40
2018-02-12T23:53:49.442Z,4.70
2018-02-12T23:56:19.181Z,4.83
2018-02-12T23:58:48.144Z,4.63
